Главная страница
METAR-TAF:

METAR-TAF

Аэропорты :

Юксекова, Турция

широта: 37-33-06N, долгота: 44-14-01E, высота над уровнем моря: 1950 м

Текущие метеонаблюдения

Эта сводка был подготовлена 7 часа и 10 минут назад, в 12:50 UTC
Ветер 14 Узел от южный-юго-западный с порывами до 25 Узел, изменяющийся между южный и западный-юго-западный
Температура 23°C
Влажность 20%
Давление 1016 hPa
Видимость 10 км и более
небольшая облачность на высоте 4000 фута

METAR: LTCW 171250Z 21014G25KT 180V240 9999 FEW040 23/M01 Q1016

Время: 23:00 (20:00 UTC)

Прогноз

Эта сводка был подготовлена 3 часа и 20 минут назад, в 16:40 UTC
Прогноз действительный с 17-го 18 UTC до 18-го 03 UTC
Ветер 6 Узел от восточно-северо-восточный
Видимость 10 км и более
небольшая облачность на высоте 4000 фута
изменения
С 17-го 18 UTC до 17-го 21 UTC
Видимость 10 км и более
Нет облачности ниже 1500 м, и нет кучево-дождевой облачности

TAF: LTCW 171640Z 1718/1803 07006KT 9999 FEW040 BECMG 1718/1721 CAVOK

Метеонаблюдения и прогнозы для более 4000 аэропортов (сводки METAR и TAF).

Имеющиеся станции представлены на карте желтыми и красными точками.

Чтобы увидеть название станции, наведите на нее мышь.

Затем щелкните, чтобы увидеть метеонаблюдения и метеопрогнозы.

Управление картой: чтобы увеличить масштаб, щелкните зеленые кнопки с черным крестиком; чтобы уменьшить масштаб, щелкните зеленую кнопку с тире; для просмотра соседних карт щелкайте зеленые стрелки.


METAR-TAF: